createdAt,value
2023-01-19T00:00:54.802Z,94.27
2023-01-19T00:01:54.806Z,94.27
2023-01-19T00:02:54.866Z,94.27
2023-01-19T00:03:54.935Z,94.37
2023-01-19T00:04:54.788Z,94.48
2023-01-19T00:05:55.097Z,94.58
2023-01-19T00:06:54.831Z,94.58
2023-01-19T00:07:54.772Z,94.58
2023-01-19T00:08:54.742Z,94.69
2023-01-19T00:09:54.803Z,94.79
2023-01-19T00:10:54.724Z,94.90
2023-01-19T00:11:54.996Z,95.00
2023-01-19T00:12:55.005Z,95.00
2023-01-19T00:13:54.684Z,95.00
2023-01-19T00:14:54.669Z,95.10
2023-01-19T00:15:54.755Z,95.21
2023-01-19T00:16:54.673Z,95.21
2023-01-19T00:17:54.655Z,95.31
2023-01-19T00:18:54.685Z,95.31
2023-01-19T00:19:54.968Z,95.31
2023-01-19T00:20:54.615Z,95.21
2023-01-19T00:21:54.673Z,95.17
2023-01-19T00:22:54.590Z,95.06
2023-01-19T00:23:54.593Z,95.17
2023-01-19T00:24:54.575Z,95.27
2023-01-19T00:25:54.567Z,95.27
2023-01-19T00:26:54.882Z,95.27
2023-01-19T00:27:55.575Z,95.27
2023-01-19T00:28:54.536Z,95.27
2023-01-19T00:29:54.565Z,95.27
2023-01-19T00:30:54.511Z,95.27
2023-01-19T00:31:54.490Z,95.27
2023-01-19T00:32:54.511Z,95.27
2023-01-19T00:33:54.802Z,95.27
2023-01-19T00:34:54.486Z,95.17
2023-01-19T00:35:54.472Z,95.06
2023-01-19T00:36:54.451Z,95.06
2023-01-19T00:37:54.477Z,95.06
2023-01-19T00:38:54.479Z,95.06
2023-01-19T00:39:54.456Z,95.06
2023-01-19T00:40:54.693Z,95.06
2023-01-19T00:41:54.383Z,95.06
2023-01-19T00:42:54.445Z,95.06
2023-01-19T00:43:54.400Z,95.06
2023-01-19T00:44:54.367Z,95.17
2023-01-19T00:45:54.422Z,95.17
2023-01-19T00:46:54.337Z,95.17
2023-01-19T00:47:54.620Z,95.27
2023-01-19T00:48:54.311Z,95.37
2023-01-19T00:49:54.332Z,95.48
2023-01-19T00:50:54.322Z,95.58
2023-01-19T00:51:54.342Z,95.58
2023-01-19T00:52:54.304Z,95.48
2023-01-19T00:53:54.268Z,95.48
2023-01-19T00:54:54.551Z,95.37
2023-01-19T00:55:54.254Z,95.48
2023-01-19T00:56:54.262Z,95.48
2023-01-19T00:57:54.287Z,95.48
2023-01-19T00:58:54.226Z,95.48
2023-01-19T00:59:54.270Z,95.58
2023-01-19T01:00:54.354Z,95.58
2023-01-19T01:01:54.669Z,95.48
2023-01-19T01:02:54.228Z,95.48
2023-01-19T01:03:54.193Z,95.48
2023-01-19T01:04:54.151Z,95.58
2023-01-19T01:05:54.154Z,95.58
2023-01-19T01:06:54.134Z,95.43
2023-01-19T01:07:54.160Z,95.58
2023-01-19T01:08:54.393Z,95.54
2023-01-19T01:09:54.160Z,95.54
2023-01-19T01:10:54.080Z,95.54
2023-01-19T01:11:54.072Z,95.54
2023-01-19T01:12:57.385Z,95.64
2023-01-19T01:13:54.055Z,95.64
2023-01-19T01:14:54.039Z,95.64
2023-01-19T01:15:54.358Z,95.54
2023-01-19T01:16:54.093Z,95.54
2023-01-19T01:17:54.024Z,95.43
2023-01-19T01:18:54.010Z,95.43
2023-01-19T01:19:54.050Z,95.43
2023-01-19T01:20:56.085Z,95.43
2023-01-19T01:21:53.999Z,95.43
2023-01-19T01:22:54.245Z,95.43
2023-01-19T01:23:53.948Z,95.43
2023-01-19T01:24:53.946Z,95.43
2023-01-19T01:25:53.946Z,95.43
2023-01-19T01:26:53.944Z,95.54
2023-01-19T01:27:53.962Z,95.54
2023-01-19T01:28:53.896Z,95.75
2023-01-19T01:29:54.235Z,95.95
2023-01-19T01:30:53.893Z,96.26
2023-01-19T01:31:53.935Z,96.37
2023-01-19T01:32:53.851Z,96.58
2023-01-19T01:33:53.877Z,96.89
2023-01-19T01:34:53.826Z,97.20
2023-01-19T01:35:53.825Z,97.52
2023-01-19T01:36:54.115Z,97.62
2023-01-19T01:37:53.814Z,97.83
2023-01-19T01:38:53.850Z,97.94
2023-01-19T01:39:53.823Z,98.14
2023-01-19T01:40:53.803Z,98.35
2023-01-19T01:41:54.025Z,98.46
2023-01-19T01:42:53.766Z,98.66
2023-01-19T01:43:54.013Z,98.97
2023-01-19T01:44:53.730Z,99.23
2023-01-19T01:45:53.810Z,99.33
2023-01-19T01:46:53.747Z,99.33
2023-01-19T01:47:53.702Z,99.33
2023-01-19T01:48:53.701Z,99.23
2023-01-19T01:49:53.696Z,99.02
2023-01-19T01:50:53.948Z,98.92
2023-01-19T01:51:53.717Z,98.92
2023-01-19T01:53:05.996Z,98.82
2023-01-19T01:53:53.642Z,98.66
2023-01-19T01:54:53.622Z,98.56
2023-01-19T01:55:53.616Z,98.35
2023-01-19T01:56:53.622Z,98.25
2023-01-19T01:57:53.913Z,98.04
2023-01-19T01:58:53.597Z,97.94
2023-01-19T01:59:53.595Z,97.72
2023-01-19T02:00:53.727Z,97.72
2023-01-19T02:01:53.644Z,97.62
2023-01-19T02:02:53.605Z,97.62
2023-01-19T02:03:53.582Z,97.52
2023-01-19T02:04:53.854Z,97.41
2023-01-19T02:05:53.512Z,97.31
2023-01-19T02:06:53.502Z,97.31
2023-01-19T02:07:53.488Z,97.20
2023-01-19T02:08:53.474Z,97.10
2023-01-19T02:09:53.517Z,97.00
2023-01-19T02:10:53.507Z,97.00
2023-01-19T02:11:53.737Z,96.89
2023-01-19T02:12:53.431Z,96.79
2023-01-19T02:13:53.430Z,96.89
2023-01-19T02:14:53.452Z,97.00
2023-01-19T02:15:53.438Z,97.00
2023-01-19T02:16:53.464Z,96.89
2023-01-19T02:17:53.391Z,97.00
2023-01-19T02:18:53.719Z,96.89
2023-01-19T02:19:53.376Z,96.89
2023-01-19T02:20:53.401Z,96.79
2023-01-19T02:21:53.394Z,96.89
2023-01-19T02:22:53.340Z,96.75
2023-01-19T02:23:53.320Z,96.64
2023-01-19T02:24:53.313Z,96.53
2023-01-19T02:25:53.582Z,96.53
2023-01-19T02:26:53.312Z,96.64
2023-01-19T02:27:53.325Z,96.64
2023-01-19T02:28:53.299Z,96.64
2023-01-19T02:29:53.270Z,96.64
2023-01-19T02:30:53.300Z,96.64
2023-01-19T02:31:53.240Z,96.43
2023-01-19T02:32:53.534Z,96.43
2023-01-19T02:33:53.262Z,96.43
2023-01-19T02:34:53.239Z,96.33
2023-01-19T02:35:53.199Z,96.33
2023-01-19T02:36:53.180Z,96.43
2023-01-19T02:37:53.172Z,96.43
2023-01-19T02:38:53.178Z,96.43
2023-01-19T02:39:53.513Z,96.33
2023-01-19T02:40:53.161Z,96.33
2023-01-19T02:41:53.169Z,96.22
2023-01-19T02:42:53.140Z,96.22
2023-01-19T02:43:53.107Z,96.12
2023-01-19T02:44:53.127Z,96.01
2023-01-19T02:45:53.153Z,96.01
2023-01-19T02:46:53.360Z,96.01
2023-01-19T02:47:53.109Z,96.01
2023-01-19T02:48:53.075Z,96.01
2023-01-19T02:49:53.050Z,96.01
2023-01-19T02:50:53.063Z,96.01
2023-01-19T02:51:53.064Z,96.01
2023-01-19T02:52:53.018Z,95.91
2023-01-19T02:53:53.305Z,95.91
2023-01-19T02:54:53.005Z,96.01
2023-01-19T02:55:52.989Z,96.33
2023-01-19T02:56:53.009Z,96.85
2023-01-19T02:57:53.029Z,96.95
2023-01-19T02:58:52.956Z,97.27
2023-01-19T02:59:52.939Z,97.68
2023-01-19T03:00:53.221Z,97.83
2023-01-19T03:01:53.074Z,98.04
2023-01-19T03:02:52.961Z,98.35
2023-01-19T03:03:52.939Z,98.25
2023-01-19T03:04:52.916Z,98.56
2023-01-19T03:05:52.917Z,99.18
2023-01-19T03:06:52.909Z,99.60
2023-01-19T03:07:53.181Z,99.60
2023-01-19T03:08:52.901Z,99.75
2023-01-19T03:09:52.908Z,99.96
2023-01-19T03:10:52.861Z,99.99
2023-01-19T03:11:52.821Z,99.99
2023-01-19T03:12:52.810Z,99.99
2023-01-19T03:13:52.829Z,99.99
2023-01-19T03:14:53.098Z,99.99
2023-01-19T03:15:52.982Z,99.99
2023-01-19T03:16:52.878Z,99.99
2023-01-19T03:17:52.768Z,99.99
2023-01-19T03:18:52.753Z,99.99
2023-01-19T03:19:52.761Z,99.99
2023-01-19T03:20:52.740Z,99.99
2023-01-19T03:21:54.118Z,99.99
2023-01-19T03:22:52.735Z,99.99
2023-01-19T03:23:52.713Z,99.99
2023-01-19T03:24:52.699Z,99.99
2023-01-19T03:25:52.682Z,99.99
2023-01-19T03:26:52.668Z,99.99
2023-01-19T03:27:52.751Z,99.99
2023-01-19T03:28:52.991Z,99.99
2023-01-19T03:29:52.655Z,99.99
2023-01-19T03:30:52.684Z,99.99
2023-01-19T03:31:52.620Z,99.99
2023-01-19T03:32:52.597Z,99.99
2023-01-19T03:33:52.664Z,99.99
2023-01-19T03:34:52.594Z,99.99
2023-01-19T03:35:52.878Z,99.99
2023-01-19T03:36:52.569Z,99.99
2023-01-19T03:37:52.559Z,99.99
2023-01-19T03:38:52.551Z,99.99
2023-01-19T03:39:52.597Z,99.99
2023-01-19T03:40:52.558Z,99.99
2023-01-19T03:41:52.531Z,99.99
2023-01-19T03:42:53.761Z,99.99
2023-01-19T03:43:52.507Z,99.99
2023-01-19T03:44:52.504Z,99.99
2023-01-19T03:45:52.546Z,99.99
2023-01-19T03:46:52.491Z,99.99
2023-01-19T03:47:52.493Z,99.99
2023-01-19T03:48:52.473Z,99.99
2023-01-19T03:49:52.723Z,99.99
2023-01-19T03:50:52.467Z,99.99
2023-01-19T03:51:52.483Z,99.99
2023-01-19T03:52:52.417Z,99.99
2023-01-19T03:53:52.445Z,99.99
2023-01-19T03:54:52.467Z,99.99
2023-01-19T03:55:52.398Z,99.99
2023-01-19T03:56:52.699Z,99.99
2023-01-19T03:57:52.431Z,99.99
2023-01-19T03:58:52.391Z,99.99
2023-01-19T03:59:52.338Z,99.99
2023-01-19T04:00:52.370Z,99.81
2023-01-19T04:01:52.375Z,99.71
2023-01-19T04:02:52.398Z,99.50
2023-01-19T04:03:52.705Z,99.40
2023-01-19T04:04:52.322Z,99.40
2023-01-19T04:05:52.276Z,99.50
2023-01-19T04:06:52.273Z,99.29
2023-01-19T04:07:52.260Z,99.18
2023-01-19T04:08:52.266Z,99.08
2023-01-19T04:09:52.268Z,98.77
2023-01-19T04:10:52.765Z,98.77
2023-01-19T04:11:52.247Z,98.25
2023-01-19T04:12:52.203Z,98.10
2023-01-19T04:13:52.189Z,97.99
2023-01-19T04:14:52.249Z,97.99
2023-01-19T04:15:52.540Z,98.10
2023-01-19T04:16:52.192Z,97.99
2023-01-19T04:17:52.161Z,97.78
2023-01-19T04:18:52.150Z,97.68
2023-01-19T04:19:52.149Z,97.58
2023-01-19T04:20:52.111Z,97.47
2023-01-19T04:21:52.179Z,97.47
2023-01-19T04:22:52.122Z,97.27
2023-01-19T04:23:52.081Z,97.27
2023-01-19T04:24:52.080Z,96.95
2023-01-19T04:25:52.079Z,97.27
2023-01-19T04:26:52.090Z,97.37
2023-01-19T04:27:52.387Z,97.37
2023-01-19T04:28:52.062Z,97.58
2023-01-19T04:29:52.042Z,97.47
2023-01-19T04:30:52.190Z,97.68
2023-01-19T04:31:52.036Z,98.04
2023-01-19T04:32:52.000Z,98.35
2023-01-19T04:33:52.039Z,98.87
2023-01-19T04:34:52.273Z,99.40
2023-01-19T04:35:54.231Z,99.99
2023-01-19T04:36:51.957Z,99.99
2023-01-19T04:37:51.935Z,99.99
2023-01-19T04:38:51.941Z,99.99
2023-01-19T04:39:51.987Z,99.99
2023-01-19T04:40:51.951Z,99.99
2023-01-19T04:41:52.197Z,99.99
2023-01-19T04:42:52.481Z,99.99
2023-01-19T04:43:51.904Z,99.99
2023-01-19T04:44:51.871Z,99.99
2023-01-19T04:45:51.980Z,99.99
2023-01-19T04:46:51.853Z,99.99
2023-01-19T04:47:51.836Z,99.99
2023-01-19T04:48:52.145Z,99.99
2023-01-19T04:49:51.830Z,99.99
2023-01-19T04:50:51.828Z,99.99
2023-01-19T04:51:51.842Z,99.99
2023-01-19T04:52:51.811Z,99.99
2023-01-19T04:53:51.789Z,99.99
2023-01-19T04:54:51.769Z,99.99
2023-01-19T04:55:52.041Z,99.99
2023-01-19T04:56:51.733Z,99.99
2023-01-19T04:57:51.762Z,99.99
2023-01-19T04:58:51.726Z,99.99
2023-01-19T04:59:51.720Z,99.99
2023-01-19T05:00:51.717Z,99.99
2023-01-19T05:01:51.775Z,99.99
2023-01-19T05:02:52.042Z,99.99
2023-01-19T05:03:51.738Z,99.99
2023-01-19T05:04:51.663Z,99.99
2023-01-19T05:05:51.664Z,99.99
2023-01-19T05:06:51.647Z,99.99
2023-01-19T05:07:51.674Z,99.99
2023-01-19T05:08:51.624Z,99.99
2023-01-19T05:09:51.939Z,99.99
2023-01-19T05:10:51.647Z,99.99
2023-01-19T05:11:51.599Z,99.99
2023-01-19T05:12:51.603Z,99.99
2023-01-19T05:13:51.630Z,99.99
2023-01-19T05:14:51.568Z,99.99
2023-01-19T05:15:51.630Z,99.99
2023-01-19T05:16:51.837Z,99.99
2023-01-19T05:17:51.557Z,99.99
2023-01-19T05:18:52.429Z,99.99
2023-01-19T05:19:51.527Z,99.99
2023-01-19T05:20:51.519Z,99.99
2023-01-19T05:21:51.578Z,99.99
2023-01-19T05:22:51.507Z,99.99
2023-01-19T05:23:51.823Z,99.99
2023-01-19T05:24:51.543Z,99.99
2023-01-19T05:25:51.521Z,99.99
2023-01-19T05:26:51.466Z,99.99
2023-01-19T05:27:51.533Z,99.99
2023-01-19T05:28:51.421Z,99.99
2023-01-19T05:29:51.419Z,99.99
2023-01-19T05:30:51.771Z,99.99
2023-01-19T05:31:51.419Z,99.99
2023-01-19T05:32:51.402Z,99.99
2023-01-19T05:33:51.444Z,99.99
2023-01-19T05:34:51.369Z,99.99
2023-01-19T05:35:51.363Z,99.99
2023-01-19T05:36:51.392Z,99.99
2023-01-19T05:37:51.617Z,99.99
2023-01-19T05:38:51.369Z,99.99
2023-01-19T05:39:51.412Z,99.99
2023-01-19T05:40:51.350Z,99.99
2023-01-19T05:41:51.294Z,99.99
2023-01-19T05:42:51.331Z,99.99
2023-01-19T05:43:51.328Z,99.99
2023-01-19T05:44:51.579Z,99.99
2023-01-19T05:45:51.319Z,99.99
2023-01-19T05:46:51.344Z,99.99
2023-01-19T05:47:51.269Z,99.99
2023-01-19T05:48:51.259Z,99.99
2023-01-19T05:49:51.236Z,99.99
2023-01-19T05:50:51.249Z,99.99
2023-01-19T05:51:51.557Z,99.99
2023-01-19T05:52:51.210Z,99.99
2023-01-19T05:53:51.207Z,99.99
2023-01-19T05:54:51.207Z,99.99
2023-01-19T05:55:51.141Z,99.99
2023-01-19T05:56:51.144Z,99.99
2023-01-19T05:57:51.243Z,99.99
2023-01-19T05:58:51.114Z,99.99
2023-01-19T05:59:51.119Z,99.99
2023-01-19T06:00:51.454Z,99.99
2023-01-19T06:01:51.139Z,99.99
2023-01-19T06:02:51.117Z,99.99
2023-01-19T06:03:51.173Z,99.99
2023-01-19T06:04:51.087Z,99.99
2023-01-19T06:05:51.077Z,99.99
2023-01-19T06:06:51.360Z,99.99
2023-01-19T06:07:51.036Z,99.99
2023-01-19T06:08:51.058Z,99.99
2023-01-19T06:09:51.107Z,99.99
2023-01-19T06:10:51.040Z,99.99
2023-01-19T06:11:51.052Z,99.99
2023-01-19T06:12:51.015Z,99.99
2023-01-19T06:13:51.304Z,99.99
2023-01-19T06:14:50.965Z,99.99
2023-01-19T06:15:51.005Z,99.99
2023-01-19T06:16:50.979Z,99.99
2023-01-19T06:17:50.985Z,99.99
2023-01-19T06:18:50.951Z,99.99
2023-01-19T06:19:50.931Z,99.99
2023-01-19T06:20:51.199Z,99.99
2023-01-19T06:21:50.947Z,99.99
2023-01-19T06:22:50.915Z,99.99
2023-01-19T06:23:50.862Z,99.99
2023-01-19T06:24:50.839Z,99.99
2023-01-19T06:25:50.888Z,99.99
2023-01-19T06:26:50.824Z,99.99
2023-01-19T06:27:51.207Z,99.99
2023-01-19T06:28:50.826Z,99.99
2023-01-19T06:29:50.812Z,99.99
2023-01-19T06:30:50.844Z,99.99
2023-01-19T06:31:50.826Z,99.99
2023-01-19T06:32:50.762Z,99.99
2023-01-19T06:33:50.823Z,99.99
2023-01-19T06:34:53.314Z,99.99
2023-01-19T06:35:50.723Z,99.99
2023-01-19T06:36:50.744Z,99.99
2023-01-19T06:37:50.710Z,99.99
2023-01-19T06:38:50.917Z,99.99
2023-01-19T06:39:50.763Z,99.99
2023-01-19T06:40:50.708Z,99.99
2023-01-19T06:41:50.984Z,99.99
2023-01-19T06:42:50.683Z,99.99
2023-01-19T06:43:50.700Z,99.99
2023-01-19T06:44:50.667Z,99.99
2023-01-19T06:45:50.733Z,99.99
2023-01-19T06:46:50.652Z,99.99
2023-01-19T06:47:50.631Z,99.99
2023-01-19T06:48:50.925Z,99.99
2023-01-19T06:49:50.630Z,99.99
2023-01-19T06:50:50.629Z,99.99
2023-01-19T06:51:50.645Z,99.99
2023-01-19T06:52:50.596Z,99.99
2023-01-19T06:53:50.566Z,99.99
2023-01-19T06:54:50.568Z,99.99
2023-01-19T06:55:50.847Z,99.99
2023-01-19T06:56:50.548Z,99.99
2023-01-19T06:57:51.353Z,99.99
2023-01-19T06:58:50.547Z,99.99
2023-01-19T06:59:50.547Z,99.99
2023-01-19T07:00:50.660Z,99.99
2023-01-19T07:01:50.579Z,99.99
2023-01-19T07:02:50.560Z,99.99
2023-01-19T07:03:50.502Z,99.99
2023-01-19T07:04:50.479Z,99.99
2023-01-19T07:05:50.460Z,99.99
2023-01-19T07:06:50.490Z,99.99
2023-01-19T07:07:50.444Z,99.99
2023-01-19T07:08:50.724Z,99.99
2023-01-19T07:09:51.558Z,99.99
2023-01-19T07:11:25.618Z,99.99
2023-01-19T07:11:50.408Z,99.99
2023-01-19T07:12:50.389Z,99.99
2023-01-19T07:13:50.373Z,99.99
2023-01-19T07:14:50.463Z,99.99
2023-01-19T07:15:51.015Z,99.99
2023-01-19T07:16:50.388Z,99.99
2023-01-19T07:17:50.337Z,99.99
2023-01-19T07:18:50.370Z,99.99
2023-01-19T07:19:50.316Z,99.99
2023-01-19T07:20:50.316Z,99.99
2023-01-19T07:21:50.542Z,99.99
2023-01-19T07:22:50.548Z,99.99
2023-01-19T07:23:50.292Z,99.99
2023-01-19T07:24:50.263Z,99.99
2023-01-19T07:25:50.290Z,99.99
2023-01-19T07:26:50.238Z,99.99
2023-01-19T07:27:50.305Z,99.99
2023-01-19T07:28:50.258Z,99.99
2023-01-19T07:29:52.538Z,99.99
2023-01-19T07:30:50.284Z,99.99
2023-01-19T07:31:50.393Z,99.99
2023-01-19T07:32:50.241Z,99.99
2023-01-19T07:33:50.222Z,99.99
2023-01-19T07:34:50.191Z,99.99
2023-01-19T07:35:50.180Z,99.99
2023-01-19T07:36:50.399Z,99.99
2023-01-19T07:37:50.110Z,99.99
2023-01-19T07:38:50.109Z,99.99
2023-01-19T07:39:50.178Z,99.99
2023-01-19T07:40:50.075Z,99.99
2023-01-19T07:41:50.130Z,99.99
2023-01-19T07:42:50.102Z,99.99
2023-01-19T07:43:50.369Z,99.99
2023-01-19T07:44:50.121Z,99.99
2023-01-19T07:45:50.214Z,99.99
2023-01-19T07:46:50.082Z,99.99
2023-01-19T07:47:50.063Z,99.99
2023-01-19T07:48:50.136Z,99.99
2023-01-19T07:49:50.015Z,99.99
2023-01-19T07:50:50.349Z,99.99
2023-01-19T07:51:50.569Z,99.99
2023-01-19T07:52:50.014Z,99.99
2023-01-19T07:53:49.992Z,99.99
2023-01-19T07:54:49.957Z,99.99
2023-01-19T07:55:49.970Z,99.99
2023-01-19T07:56:49.952Z,99.99
2023-01-19T07:57:50.294Z,99.99
2023-01-19T07:58:49.972Z,99.99
2023-01-19T07:59:50.059Z,99.99
2023-01-19T08:00:49.951Z,99.99
2023-01-19T08:01:49.953Z,99.99
2023-01-19T08:02:49.960Z,99.99
2023-01-19T08:03:49.908Z,99.99
2023-01-19T08:04:50.192Z,99.99
2023-01-19T08:05:49.972Z,99.99
2023-01-19T08:06:49.826Z,99.99
2023-01-19T08:07:51.118Z,99.99
2023-01-19T08:08:49.881Z,99.99
2023-01-19T08:09:50.587Z,99.99
2023-01-19T08:10:49.796Z,99.99
2023-01-19T08:11:50.215Z,99.99
2023-01-19T08:12:49.866Z,99.99
2023-01-19T08:13:49.755Z,99.99
2023-01-19T08:14:49.821Z,99.99
2023-01-19T08:15:49.993Z,99.99
2023-01-19T08:16:49.762Z,99.99
2023-01-19T08:17:49.796Z,99.99
2023-01-19T08:18:50.058Z,99.99
2023-01-19T08:19:49.767Z,99.99
2023-01-19T08:20:49.726Z,99.99
2023-01-19T08:21:49.786Z,99.99
2023-01-19T08:22:49.725Z,99.99
2023-01-19T08:23:49.702Z,99.99
2023-01-19T08:24:50.544Z,99.99
2023-01-19T08:25:50.020Z,99.99
2023-01-19T08:26:49.648Z,99.99
2023-01-19T08:27:49.743Z,99.99
2023-01-19T08:28:49.640Z,99.99
2023-01-19T08:29:49.641Z,99.99
2023-01-19T08:30:49.654Z,99.99
2023-01-19T08:31:49.740Z,99.99
2023-01-19T08:32:49.887Z,99.99
2023-01-19T08:33:49.652Z,99.99
2023-01-19T08:34:49.588Z,99.99
2023-01-19T08:35:49.626Z,99.99
2023-01-19T08:36:49.532Z,99.99
2023-01-19T08:37:49.639Z,99.99
2023-01-19T08:38:49.547Z,99.99
2023-01-19T08:39:49.871Z,99.99
2023-01-19T08:40:49.491Z,99.99
2023-01-19T08:41:49.584Z,99.99
2023-01-19T08:42:49.449Z,99.99
2023-01-19T08:43:49.529Z,99.99
2023-01-19T08:44:57.515Z,99.99
2023-01-19T08:45:49.709Z,99.99
2023-01-19T08:46:49.927Z,99.99
2023-01-19T08:47:49.524Z,99.99
2023-01-19T08:48:49.457Z,99.99
2023-01-19T08:49:49.453Z,99.99
2023-01-19T08:50:49.426Z,99.99
2023-01-19T08:51:49.540Z,99.99
2023-01-19T08:52:49.488Z,99.99
2023-01-19T08:53:49.740Z,99.99
2023-01-19T08:54:49.403Z,99.99
2023-01-19T08:55:49.328Z,99.99
2023-01-19T08:56:49.337Z,99.99
2023-01-19T08:57:49.442Z,99.99
2023-01-19T08:58:59.538Z,99.99
2023-01-19T08:59:49.373Z,99.99
2023-01-19T09:00:49.619Z,99.99
2023-01-19T09:01:49.562Z,99.99
2023-01-19T09:02:49.345Z,99.99
2023-01-19T09:03:49.442Z,99.99
2023-01-19T09:04:49.319Z,99.99
2023-01-19T09:05:49.313Z,99.99
2023-01-19T09:06:49.258Z,99.99
2023-01-19T09:07:49.636Z,99.99
2023-01-19T09:08:49.299Z,99.99
2023-01-19T09:09:49.196Z,99.99
2023-01-19T09:10:49.262Z,99.99
2023-01-19T09:11:49.181Z,99.99
2023-01-19T09:12:49.126Z,99.99
2023-01-19T09:13:49.217Z,99.99
2023-01-19T09:14:49.450Z,99.99
2023-01-19T09:15:49.223Z,99.99
2023-01-19T09:16:49.130Z,99.99
2023-01-19T09:17:49.122Z,99.99
2023-01-19T09:18:49.186Z,99.99
2023-01-19T09:19:49.093Z,99.99
2023-01-19T09:20:49.177Z,99.99
2023-01-19T09:21:49.436Z,99.99
2023-01-19T09:22:49.083Z,99.99
2023-01-19T09:23:49.126Z,99.99
2023-01-19T09:24:49.077Z,99.99
2023-01-19T09:25:49.008Z,99.99
2023-01-19T09:26:49.096Z,99.99
2023-01-19T09:27:49.210Z,99.99
2023-01-19T09:28:49.339Z,99.99
2023-01-19T09:29:48.989Z,99.99
2023-01-19T09:30:49.040Z,99.99
2023-01-19T09:31:49.100Z,99.99
2023-01-19T09:32:48.988Z,99.99
2023-01-19T09:33:49.007Z,99.99
2023-01-19T09:34:48.977Z,99.99
2023-01-19T09:35:49.316Z,99.99
2023-01-19T09:36:48.952Z,99.99
2023-01-19T09:37:48.938Z,99.99
2023-01-19T09:38:48.968Z,99.99
2023-01-19T09:39:48.995Z,99.99
2023-01-19T09:40:48.941Z,99.99
2023-01-19T09:41:48.877Z,99.99
2023-01-19T09:42:49.269Z,99.99
2023-01-19T09:43:48.917Z,99.99
2023-01-19T09:44:48.873Z,99.99
2023-01-19T09:45:48.978Z,99.99
2023-01-19T09:46:48.856Z,99.99
2023-01-19T09:47:48.877Z,99.99
2023-01-19T09:48:48.902Z,99.99
2023-01-19T09:49:49.083Z,99.99
2023-01-19T09:50:48.853Z,99.99
2023-01-19T09:51:48.860Z,99.99
2023-01-19T09:52:48.788Z,99.99
2023-01-19T09:53:48.824Z,99.99
2023-01-19T09:54:48.810Z,99.99
2023-01-19T09:55:48.778Z,99.99
2023-01-19T09:56:52.177Z,99.99
2023-01-19T09:57:48.779Z,99.99
2023-01-19T09:58:48.695Z,99.99
2023-01-19T09:59:48.808Z,99.99
2023-01-19T10:00:48.872Z,99.99
2023-01-19T10:01:48.880Z,99.99
2023-01-19T10:02:48.699Z,99.99
2023-01-19T10:03:48.752Z,99.99
2023-01-19T10:04:48.656Z,99.99
2023-01-19T10:05:48.625Z,99.99
2023-01-19T10:06:48.717Z,99.99
2023-01-19T10:07:48.685Z,99.99
2023-01-19T10:08:48.922Z,99.99
2023-01-19T10:09:48.767Z,99.99
2023-01-19T10:10:48.595Z,99.99
2023-01-19T10:11:53.006Z,99.99
2023-01-19T10:12:48.583Z,99.99
2023-01-19T10:13:48.549Z,99.99
2023-01-19T10:14:48.543Z,99.99
2023-01-19T10:15:48.659Z,99.99
2023-01-19T10:16:48.536Z,99.99
2023-01-19T10:17:48.502Z,99.99
2023-01-19T10:18:48.518Z,99.99
2023-01-19T10:19:48.533Z,99.99
2023-01-19T10:20:48.844Z,99.99
2023-01-19T10:21:48.545Z,99.99
2023-01-19T10:22:48.522Z,99.99
2023-01-19T10:23:48.414Z,99.99
2023-01-19T10:24:48.496Z,99.99
2023-01-19T10:25:48.541Z,99.99
2023-01-19T10:26:48.477Z,99.99
2023-01-19T10:27:48.899Z,99.99
2023-01-19T10:28:48.444Z,99.99
2023-01-19T10:29:48.380Z,99.99
2023-01-19T10:30:48.357Z,99.99
2023-01-19T10:31:48.395Z,99.99
2023-01-19T10:32:48.393Z,99.99
2023-01-19T10:33:48.441Z,99.99
2023-01-19T10:34:48.761Z,99.99
2023-01-19T10:35:48.413Z,99.99
2023-01-19T10:36:48.413Z,99.99
2023-01-19T10:37:48.299Z,99.99
2023-01-19T10:38:48.426Z,99.99
2023-01-19T10:39:48.431Z,99.99
2023-01-19T10:40:48.269Z,99.99
2023-01-19T10:41:48.576Z,99.99
2023-01-19T10:42:48.237Z,99.99
2023-01-19T10:43:48.280Z,99.99
2023-01-19T10:44:48.265Z,99.99
2023-01-19T10:45:48.385Z,99.99
2023-01-19T10:46:48.206Z,99.99
2023-01-19T10:47:48.318Z,99.99
2023-01-19T10:48:48.513Z,99.99
2023-01-19T10:49:48.180Z,99.99
2023-01-19T10:50:48.160Z,99.99
2023-01-19T10:51:48.423Z,99.99
2023-01-19T10:52:48.227Z,99.99
2023-01-19T10:53:48.212Z,99.99
2023-01-19T10:54:48.141Z,99.99
2023-01-19T10:55:48.440Z,99.99
2023-01-19T10:56:48.157Z,99.99
2023-01-19T10:57:48.341Z,99.99
2023-01-19T10:58:48.188Z,99.99
2023-01-19T10:59:48.226Z,99.99
2023-01-19T11:00:48.113Z,99.99
2023-01-19T11:01:48.234Z,99.99
2023-01-19T11:02:48.420Z,99.99
2023-01-19T11:03:48.116Z,99.99
2023-01-19T11:04:49.925Z,99.34
2023-01-19T11:05:47.976Z,99.03
2023-01-19T11:06:48.095Z,98.93
2023-01-19T11:07:48.023Z,99.13
2023-01-19T11:08:47.989Z,98.94
2023-01-19T11:09:48.381Z,97.19
2023-01-19T11:10:49.302Z,94.87
2023-01-19T11:11:47.985Z,94.45
2023-01-19T11:12:47.974Z,94.56
2023-01-19T11:13:48.047Z,94.04
2023-01-19T11:14:47.929Z,93.62
2023-01-19T11:15:48.063Z,93.87
2023-01-19T11:16:48.348Z,93.93
2023-01-19T11:17:47.838Z,92.91
2023-01-19T11:18:48.037Z,91.99
2023-01-19T11:19:48.075Z,90.77
2023-01-19T11:20:47.883Z,90.33
2023-01-19T11:21:47.891Z,89.87
2023-01-19T11:22:48.904Z,90.33
2023-01-19T11:23:48.196Z,90.74
2023-01-19T11:24:48.498Z,90.35
2023-01-19T11:25:47.870Z,88.96
2023-01-19T11:26:47.922Z,87.79
2023-01-19T11:27:47.937Z,87.37
2023-01-19T11:28:47.831Z,86.92
2023-01-19T11:29:47.725Z,86.10
2023-01-19T11:30:48.098Z,85.58
2023-01-19T11:31:47.784Z,86.13
2023-01-19T11:32:47.799Z,86.61
2023-01-19T11:33:49.870Z,85.78
2023-01-19T11:34:47.765Z,85.89
2023-01-19T11:35:47.713Z,85.47
2023-01-19T11:36:47.697Z,85.54
2023-01-19T11:37:48.064Z,83.58
2023-01-19T11:38:47.767Z,84.51
2023-01-19T11:39:47.723Z,84.61
2023-01-19T11:40:47.703Z,84.30
2023-01-19T11:41:47.741Z,83.78
2023-01-19T11:42:47.698Z,83.64
2023-01-19T11:43:49.233Z,83.78
2023-01-19T11:44:47.970Z,84.20
2023-01-19T11:45:47.820Z,84.84
2023-01-19T11:46:49.983Z,82.84
2023-01-19T11:47:47.594Z,82.33
2023-01-19T11:48:47.583Z,81.71
2023-01-19T11:49:47.596Z,81.40
2023-01-19T11:50:47.606Z,81.27
2023-01-19T11:51:47.938Z,82.47
2023-01-19T11:52:48.371Z,82.26
2023-01-19T11:53:47.515Z,81.75
2023-01-19T11:54:47.801Z,81.85
2023-01-19T11:55:47.529Z,81.40
2023-01-19T11:56:47.583Z,80.93
2023-01-19T11:57:47.823Z,81.13
2023-01-19T11:58:47.819Z,81.37
2023-01-19T11:59:47.514Z,81.85
2023-01-19T12:00:47.541Z,81.44
2023-01-19T12:01:47.396Z,81.07
2023-01-19T12:02:47.470Z,82.03
2023-01-19T12:03:47.561Z,82.52
2023-01-19T12:04:47.428Z,84.83
2023-01-19T12:05:48.374Z,85.00
2023-01-19T12:06:47.401Z,84.86
2023-01-19T12:07:47.383Z,83.48
2023-01-19T12:08:47.366Z,82.75
2023-01-19T12:09:47.464Z,83.41
2023-01-19T12:10:47.393Z,83.93
2023-01-19T12:11:47.621Z,84.23
2023-01-19T12:12:47.409Z,83.44
2023-01-19T12:13:47.334Z,81.68
2023-01-19T12:14:47.347Z,81.37
2023-01-19T12:15:47.415Z,80.65
2023-01-19T12:16:47.373Z,81.75
2023-01-19T12:17:47.271Z,80.37
2023-01-19T12:18:47.579Z,79.72
2023-01-19T12:19:47.289Z,78.89
2023-01-19T12:20:47.280Z,78.86
2023-01-19T12:21:47.346Z,77.97
2023-01-19T12:22:47.219Z,78.48
2023-01-19T12:23:47.157Z,78.75
2023-01-19T12:24:47.217Z,78.65
2023-01-19T12:25:47.477Z,77.93
2023-01-19T12:26:47.176Z,78.03
2023-01-19T12:27:47.198Z,77.93
2023-01-19T12:28:47.194Z,77.51
2023-01-19T12:29:47.142Z,77.72
2023-01-19T12:30:47.406Z,77.93
2023-01-19T12:31:47.297Z,77.83
2023-01-19T12:32:47.432Z,77.72
2023-01-19T12:33:47.177Z,77.86
2023-01-19T12:34:47.057Z,77.90
2023-01-19T12:35:47.147Z,78.34
2023-01-19T12:36:47.070Z,80.21
2023-01-19T12:37:46.993Z,82.97
2023-01-19T12:38:47.082Z,85.22
2023-01-19T12:39:47.428Z,87.23
2023-01-19T12:40:47.081Z,88.51
2023-01-19T12:41:47.025Z,88.76
2023-01-19T12:42:47.043Z,89.52
2023-01-19T12:43:47.039Z,90.35
2023-01-19T12:44:47.025Z,91.02
2023-01-19T12:45:48.013Z,91.64
2023-01-19T12:46:46.990Z,91.95
2023-01-19T12:47:50.495Z,92.51
2023-01-19T12:48:46.935Z,92.82
2023-01-19T12:49:46.875Z,92.93
2023-01-19T12:50:46.968Z,93.33
2023-01-19T12:51:46.932Z,93.44
2023-01-19T12:52:47.211Z,93.85